Time;durP1;ratioP1;P1;durP2;ratioP2;P2;SDS_P1;SDS_P2;PMS_P1;PMS_P2;Temp;Humidity;BMP_temperature;BMP_pressure;BME280_temperature;BME280_humidity;BME280_pressure;Samples;Min_cycle;Max_cycle;Signal;HPM_P1;HPM_P2
2022/07/06 00:00:26;;;;;;;1.20;0.10;;;28.50;32.90;;;;;;5072492;28;20101;-59
2022/07/06 00:02:53;;;;;;;0.77;0.10;;;28.50;33.30;;;;;;5054096;28;20778;-59
2022/07/06 00:05:21;;;;;;;0.08;0.00;;;28.40;33.80;;;;;;5071793;28;20036;-59
2022/07/06 00:07:48;;;;;;;1.08;0.20;;;28.30;33.30;;;;;;5066585;28;20131;-59
2022/07/06 00:10:15;;;;;;;5.78;0.52;;;28.20;33.40;;;;;;5071645;28;20512;-59
2022/07/06 00:12:43;;;;;;;0.20;0.10;;;28.20;33.60;;;;;;5079994;28;20501;-59
2022/07/06 00:15:11;;;;;;;0.52;0.10;;;28.10;33.70;;;;;;5073597;28;20568;-61
2022/07/06 00:17:38;;;;;;;0.52;0.13;;;28.00;33.70;;;;;;5076256;28;20070;-60
2022/07/06 00:20:06;;;;;;;0.68;0.10;;;28.00;33.90;;;;;;5078385;28;20040;-60
2022/07/06 00:22:33;;;;;;;0.22;0.10;;;28.00;34.00;;;;;;5080141;28;20081;-60
2022/07/06 00:25:00;;;;;;;0.20;0.10;;;27.90;34.10;;;;;;5075818;28;20076;-57
2022/07/06 00:27:27;;;;;;;0.93;0.10;;;27.90;34.20;;;;;;5077100;28;20090;-56
2022/07/06 00:29:55;;;;;;;1.48;0.20;;;27.80;34.30;;;;;;5076995;28;20521;-59
2022/07/06 00:32:22;;;;;;;0.20;0.10;;;27.80;34.40;;;;;;5078938;28;20036;-58
2022/07/06 00:34:50;;;;;;;0.10;0.10;;;27.70;34.40;;;;;;5076235;28;20063;-60
2022/07/06 00:37:17;;;;;;;0.30;0.10;;;27.70;35.10;;;;;;5083669;28;20032;-59
2022/07/06 00:39:44;;;;;;;1.65;0.10;;;27.70;34.70;;;;;;5074743;28;20560;-59
2022/07/06 00:42:11;;;;;;;1.38;0.10;;;27.60;34.70;;;;;;5079458;28;20481;-60
2022/07/06 00:44:38;;;;;;;1.67;0.10;;;27.60;34.80;;;;;;5080498;28;20040;-60
2022/07/06 00:47:07;;;;;;;2.17;0.47;;;27.60;34.90;;;;;;5074101;28;20082;-58
2022/07/06 00:52:20;;;;;;;0.43;0.10;;;27.50;35.10;;;;;;5063865;28;20052;-59
2022/07/06 00:54:48;;;;;;;0.50;0.20;;;27.40;35.70;;;;;;5081731;28;20047;-57
2022/07/06 00:57:15;;;;;;;0.90;0.10;;;27.40;35.20;;;;;;5080551;28;20585;-57
2022/07/06 00:59:43;;;;;;;0.10;0.10;;;27.40;35.30;;;;;;5083730;28;20123;-56
2022/07/06 01:02:12;;;;;;;0.85;0.10;;;27.30;35.30;;;;;;5072208;28;20044;-57
2022/07/06 01:04:39;;;;;;;1.23;0.08;;;27.30;35.40;;;;;;5076270;28;20059;-57
2022/07/06 01:07:06;;;;;;;0.70;0.10;;;27.30;35.50;;;;;;5078112;28;20072;-60
2022/07/06 01:09:33;;;;;;;0.47;0.15;;;27.30;35.60;;;;;;5079322;28;20058;-59
2022/07/06 01:12:00;;;;;;;4.22;0.10;;;27.20;35.60;;;;;;5085819;28;20753;-59
2022/07/06 01:14:28;;;;;;;0.15;0.10;;;27.20;35.80;;;;;;5057589;28;20050;-58
2022/07/06 01:16:55;;;;;;;0.75;0.10;;;27.20;35.90;;;;;;5047914;28;20440;-59
2022/07/06 01:19:24;;;;;;;2.55;0.10;;;27.20;36.10;;;;;;5079771;28;20181;-60
2022/07/06 01:21:52;;;;;;;0.40;0.10;;;27.20;36.40;;;;;;5078945;28;20047;-59
2022/07/06 01:24:19;;;;;;;0.82;0.10;;;27.10;36.50;;;;;;5077608;28;20044;-60
2022/07/06 01:26:46;;;;;;;0.30;0.00;;;27.10;36.70;;;;;;5078866;28;20058;-59
2022/07/06 01:29:14;;;;;;;0.85;0.10;;;27.10;36.90;;;;;;5070670;28;20424;-60
2022/07/06 01:31:48;;;;;;;0.77;0.17;;;27.10;37.00;;;;;;5080851;28;20524;-60
2022/07/06 01:34:16;;;;;;;0.98;0.10;;;27.10;37.20;;;;;;5078235;28;20381;-60
2022/07/06 01:36:43;;;;;;;1.42;0.10;;;27.00;37.10;;;;;;5070151;28;20054;-60
2022/07/06 01:39:11;;;;;;;0.40;0.10;;;27.00;37.20;;;;;;5076535;28;20493;-60
2022/07/06 01:41:39;;;;;;;0.80;0.10;;;27.00;37.30;;;;;;5074668;28;20032;-60
2022/07/06 01:44:06;;;;;;;0.63;0.10;;;27.00;37.20;;;;;;5069546;28;20044;-60
2022/07/06 01:46:34;;;;;;;1.95;0.10;;;27.00;37.30;;;;;;5076930;28;20142;-59
2022/07/06 01:49:01;;;;;;;0.15;0.10;;;26.90;37.90;;;;;;5079722;28;20132;-60
2022/07/06 01:51:28;;;;;;;0.25;0.05;;;26.90;37.30;;;;;;5078265;28;20116;-59
2022/07/06 01:53:55;;;;;;;1.35;0.10;;;26.90;37.30;;;;;;5077140;28;20040;-58
2022/07/06 01:56:24;;;;;;;0.00;0.00;;;26.90;37.30;;;;;;5055677;28;20040;-58
2022/07/06 01:58:55;;;;;;;0.30;0.10;;;26.90;37.40;;;;;;5056214;28;20067;-58
2022/07/06 02:01:23;;;;;;;0.68;0.10;;;26.80;37.40;;;;;;5075027;28;20452;-58
2022/07/06 02:03:51;;;;;;;0.22;0.20;;;26.80;37.50;;;;;;5085677;28;20044;-57
2022/07/06 02:06:18;;;;;;;1.63;0.10;;;26.80;37.50;;;;;;5075353;28;20044;-58
2022/07/06 02:08:48;;;;;;;2.67;0.30;;;26.80;37.50;;;;;;5073865;28;20040;-58
2022/07/06 02:11:15;;;;;;;0.40;0.10;;;26.70;37.40;;;;;;5073948;28;20093;-57
2022/07/06 02:13:45;;;;;;;0.47;0.10;;;26.70;37.40;;;;;;5076546;28;20044;-57
2022/07/06 02:16:13;;;;;;;1.10;0.10;;;26.70;37.40;;;;;;5076177;28;20143;-57
2022/07/06 02:18:41;;;;;;;1.92;0.10;;;26.70;37.40;;;;;;5081232;28;20089;-59
2022/07/06 02:21:08;;;;;;;0.20;0.10;;;26.70;37.50;;;;;;5079700;28;20139;-56
2022/07/06 02:23:35;;;;;;;1.20;0.10;;;26.70;37.60;;;;;;5072842;28;20039;-57
2022/07/06 02:26:03;;;;;;;0.25;0.00;;;26.60;37.60;;;;;;5078964;28;20036;-59
2022/07/06 02:28:31;;;;;;;0.45;0.10;;;26.60;37.60;;;;;;5074586;28;20076;-58
2022/07/06 02:30:59;;;;;;;0.30;0.00;;;26.60;37.60;;;;;;5076861;28;20040;-58
2022/07/06 02:33:28;;;;;;;0.50;0.43;;;26.60;37.60;;;;;;5074021;28;20045;-57
2022/07/06 02:35:55;;;;;;;1.90;0.57;;;26.60;37.70;;;;;;5075644;28;20119;-59
2022/07/06 02:38:22;;;;;;;0.10;0.10;;;26.60;37.70;;;;;;5076371;28;20504;-59
2022/07/06 02:40:50;;;;;;;0.15;0.10;;;26.50;37.60;;;;;;5065731;28;20354;-59
2022/07/06 02:43:17;;;;;;;0.32;0.10;;;26.50;37.60;;;;;;5070773;28;20044;-59
2022/07/06 02:45:44;;;;;;;0.47;0.10;;;26.50;37.60;;;;;;5079359;28;20048;-58
2022/07/06 02:48:13;;;;;;;1.77;0.60;;;26.50;37.70;;;;;;5073865;28;20052;-58
2022/07/06 02:50:41;;;;;;;0.43;0.10;;;26.50;37.70;;;;;;5056365;28;20151;-59
2022/07/06 02:53:08;;;;;;;1.70;0.15;;;26.50;37.80;;;;;;5069790;28;20477;-59
2022/07/06 02:55:35;;;;;;;1.23;0.10;;;26.50;37.80;;;;;;5058310;28;20385;-59
2022/07/06 02:58:05;;;;;;;6.63;0.60;;;26.50;37.90;;;;;;5077300;28;20048;-55
2022/07/06 03:00:33;;;;;;;0.22;0.15;;;26.40;37.90;;;;;;5074912;28;20044;-56
2022/07/06 03:03:00;;;;;;;0.35;0.10;;;26.40;37.90;;;;;;5076379;28;20572;-57
2022/07/06 03:05:29;;;;;;;0.10;0.10;;;26.40;37.90;;;;;;5054983;28;20063;-59
2022/07/06 03:07:56;;;;;;;1.15;0.10;;;26.40;37.90;;;;;;5072653;28;20090;-57
2022/07/06 03:10:23;;;;;;;0.28;0.15;;;26.40;37.90;;;;;;5070948;28;20049;-57
2022/07/06 03:12:51;;;;;;;0.22;0.03;;;26.30;37.90;;;;;;5082414;28;20049;-58
2022/07/06 03:15:18;;;;;;;0.68;0.10;;;26.40;37.90;;;;;;5084711;28;20048;-58
2022/07/06 03:17:47;;;;;;;0.40;0.10;;;26.40;38.00;;;;;;5071433;28;20047;-57
2022/07/06 03:20:15;;;;;;;1.30;0.10;;;26.30;37.90;;;;;;5073200;28;20051;-58
2022/07/06 03:22:44;;;;;;;1.77;0.17;;;26.30;38.00;;;;;;5080631;28;20052;-57
2022/07/06 03:25:14;;;;;;;4.53;0.17;;;26.30;38.00;;;;;;5054399;28;20058;-58
2022/07/06 03:27:42;;;;;;;0.55;0.10;;;26.20;38.00;;;;;;5073402;28;20072;-58
2022/07/06 03:30:11;;;;;;;0.73;0.13;;;26.30;38.10;;;;;;5078994;28;20416;-58
2022/07/06 03:32:38;;;;;;;0.15;0.10;;;26.20;38.10;;;;;;5074313;28;20043;-57
2022/07/06 03:35:07;;;;;;;0.85;0.10;;;26.20;38.20;;;;;;5072660;28;20082;-58
2022/07/06 03:37:34;;;;;;;0.10;0.10;;;26.20;38.30;;;;;;5077357;28;20045;-55
2022/07/06 03:40:04;;;;;;;0.55;0.10;;;26.20;38.30;;;;;;5083929;28;20052;-55
2022/07/06 03:42:31;;;;;;;0.80;0.68;;;26.20;38.40;;;;;;5058517;28;20048;-56
2022/07/06 03:44:58;;;;;;;0.20;0.10;;;26.20;38.40;;;;;;5078259;28;20515;-57
2022/07/06 03:47:26;;;;;;;0.20;0.10;;;26.20;38.50;;;;;;5060683;28;20043;-59
2022/07/06 03:49:53;;;;;;;0.65;0.10;;;26.20;38.60;;;;;;5070492;28;20056;-59
2022/07/06 03:52:20;;;;;;;1.08;0.10;;;26.20;38.60;;;;;;5079650;28;20072;-58
2022/07/06 03:54:52;;;;;;;0.28;0.10;;;26.20;38.60;;;;;;5080437;28;20036;-61
2022/07/06 03:57:26;;;;;;;0.88;0.10;;;26.20;38.70;;;;;;5078216;28;20580;-59
2022/07/06 03:59:54;;;;;;;2.83;0.17;;;26.10;38.80;;;;;;5074202;28;20885;-59
2022/07/06 04:02:23;;;;;;;1.45;0.20;;;26.10;38.90;;;;;;5072918;28;20085;-59
2022/07/06 04:04:52;;;;;;;0.65;0.10;;;26.10;39.00;;;;;;5079278;28;20076;-59
2022/07/06 04:07:19;;;;;;;0.30;0.10;;;26.10;39.00;;;;;;5074066;28;20122;-60
2022/07/06 04:09:47;;;;;;;0.13;0.10;;;26.10;39.00;;;;;;5081138;28;20052;-59
2022/07/06 04:12:15;;;;;;;0.45;0.10;;;26.10;39.00;;;;;;5078094;28;20420;-59
2022/07/06 04:14:44;;;;;;;2.05;0.10;;;26.10;39.10;;;;;;5076590;28;20037;-59
2022/07/06 04:19:56;;;;;;;0.22;0.20;;;26.10;39.10;;;;;;5075265;28;20036;-57
2022/07/06 04:22:23;;;;;;;0.68;0.13;;;26.10;39.10;;;;;;5085477;28;20452;-59
2022/07/06 04:24:50;;;;;;;0.90;0.10;;;26.10;39.10;;;;;;5075873;28;20140;-59
2022/07/06 04:27:17;;;;;;;5.53;0.10;;;26.10;39.10;;;;;;5079263;28;20070;-59
2022/07/06 04:29:46;;;;;;;0.68;0.10;;;26.10;39.10;;;;;;5076264;28;20048;-59
2022/07/06 04:32:13;;;;;;;4.00;0.63;;;26.10;39.20;;;;;;5057933;28;20056;-59
2022/07/06 04:34:40;;;;;;;0.90;0.10;;;26.10;39.20;;;;;;5054389;28;20561;-59
2022/07/06 04:37:08;;;;;;;1.75;0.10;;;26.10;39.20;;;;;;5086665;28;20068;-59
2022/07/06 04:39:35;;;;;;;0.30;0.20;;;26.10;39.30;;;;;;5084876;28;20049;-59
2022/07/06 04:42:02;;;;;;;1.67;0.10;;;26.10;39.30;;;;;;5073996;28;20036;-62
2022/07/06 04:44:30;;;;;;;0.38;0.10;;;26.10;39.30;;;;;;5078248;28;20101;-60
2022/07/06 04:46:58;;;;;;;1.42;0.20;;;26.10;39.30;;;;;;5058239;28;20583;-60
2022/07/06 04:49:25;;;;;;;0.25;0.10;;;26.10;39.30;;;;;;5083599;28;20585;-60
2022/07/06 04:51:52;;;;;;;0.10;0.10;;;26.10;39.40;;;;;;5079285;28;20437;-60
2022/07/06 04:54:19;;;;;;;0.65;0.57;;;26.10;39.40;;;;;;5081099;28;20045;-59
2022/07/06 04:56:47;;;;;;;0.63;0.10;;;26.00;39.40;;;;;;5076238;28;20608;-59
2022/07/06 04:59:15;;;;;;;1.48;0.10;;;26.10;39.50;;;;;;5070564;28;20097;-58
2022/07/06 05:01:43;;;;;;;0.90;0.10;;;26.10;39.50;;;;;;5077633;28;20031;-59
2022/07/06 05:04:12;;;;;;;1.60;0.10;;;26.00;39.50;;;;;;5082654;28;20037;-56
2022/07/06 05:06:39;;;;;;;1.55;0.20;;;26.00;39.50;;;;;;5072690;28;20052;-58
2022/07/06 05:09:06;;;;;;;1.98;0.65;;;26.00;39.50;;;;;;5080081;28;20043;-59
2022/07/06 05:11:34;;;;;;;1.38;0.30;;;26.00;39.60;;;;;;5061191;28;20075;-60
2022/07/06 05:14:02;;;;;;;0.10;0.10;;;26.00;39.60;;;;;;5063462;28;20066;-59
2022/07/06 05:16:29;;;;;;;0.38;0.10;;;26.00;39.60;;;;;;5058800;28;20040;-60
2022/07/06 05:18:56;;;;;;;0.70;0.13;;;26.00;39.60;;;;;;5077724;28;20036;-60
2022/07/06 05:21:25;;;;;;;1.27;0.10;;;26.00;39.60;;;;;;5091441;28;20152;-61
2022/07/06 05:23:52;;;;;;;0.45;0.28;;;26.10;39.60;;;;;;5082161;28;20054;-59
2022/07/06 05:26:19;;;;;;;0.47;0.10;;;26.00;39.60;;;;;;5076071;28;20054;-59
2022/07/06 05:28:47;;;;;;;0.95;0.10;;;26.00;39.50;;;;;;5066879;28;20492;-59
2022/07/06 05:31:18;;;;;;;1.20;0.10;;;26.10;39.60;;;;;;5063287;28;20226;-59
2022/07/06 05:33:46;;;;;;;3.50;0.30;;;26.00;39.50;;;;;;5076079;28;20121;-58
2022/07/06 05:36:13;;;;;;;1.10;0.40;;;26.00;39.50;;;;;;5079995;28;20055;-58
2022/07/06 05:38:42;;;;;;;0.70;0.20;;;26.00;39.60;;;;;;5077859;28;20044;-54
2022/07/06 05:41:10;;;;;;;6.50;0.30;;;26.00;39.70;;;;;;5079854;28;20051;-57
2022/07/06 05:43:37;;;;;;;1.50;0.10;;;26.00;39.70;;;;;;5057794;28;20041;-57
2022/07/06 05:46:04;;;;;;;2.67;0.20;;;26.00;39.80;;;;;;5084283;28;20576;-59
2022/07/06 05:51:18;;;;;;;1.67;0.38;;;26.00;39.90;;;;;;5075074;28;20123;-58
2022/07/06 05:53:48;;;;;;;0.77;0.20;;;26.00;39.90;;;;;;5075851;28;20116;-58
2022/07/06 05:56:15;;;;;;;1.60;0.10;;;26.00;39.80;;;;;;5073881;28;20036;-60
2022/07/06 05:58:43;;;;;;;0.70;0.30;;;26.00;39.70;;;;;;5065392;28;20116;-60
2022/07/06 06:01:10;;;;;;;1.67;0.10;;;26.00;39.80;;;;;;5076142;28;20044;-60
2022/07/06 06:03:39;;;;;;;2.15;0.20;;;25.90;39.80;;;;;;5079779;28;20045;-60
2022/07/06 06:06:07;;;;;;;5.78;0.25;;;25.90;40.50;;;;;;5075749;28;20402;-60
2022/07/06 06:08:34;;;;;;;2.22;0.20;;;25.90;39.90;;;;;;5083517;28;20036;-60
2022/07/06 06:11:03;;;;;;;0.20;0.10;;;25.90;39.90;;;;;;5072039;28;20040;-60
2022/07/06 06:13:30;;;;;;;0.98;0.30;;;25.90;40.00;;;;;;5082710;28;20404;-59
2022/07/06 06:15:57;;;;;;;1.88;0.20;;;25.90;39.90;;;;;;5086540;28;20036;-60
2022/07/06 06:18:24;;;;;;;0.50;0.17;;;26.00;39.90;;;;;;5066904;28;20101;-59
2022/07/06 06:20:51;;;;;;;0.98;0.22;;;26.00;39.90;;;;;;5086994;28;20055;-60
2022/07/06 06:23:18;;;;;;;2.92;0.52;;;26.00;39.80;;;;;;5083579;28;20119;-60
2022/07/06 06:25:45;;;;;;;1.10;0.17;;;26.00;39.70;;;;;;5083183;28;20056;-60
2022/07/06 06:28:14;;;;;;;1.58;0.40;;;26.10;39.70;;;;;;5086424;28;20129;-60
2022/07/06 06:30:41;;;;;;;0.77;0.25;;;26.10;39.70;;;;;;5083046;28;20043;-60
2022/07/06 06:33:10;;;;;;;4.47;0.20;;;26.10;39.60;;;;;;5080493;28;20135;-59
2022/07/06 06:35:38;;;;;;;1.08;0.35;;;26.10;39.50;;;;;;5079807;28;20036;-59
2022/07/06 06:38:05;;;;;;;2.58;0.68;;;26.10;39.40;;;;;;5083607;28;20573;-59
2022/07/06 06:40:32;;;;;;;1.80;0.40;;;26.10;39.30;;;;;;5082417;28;20040;-58
2022/07/06 06:42:59;;;;;;;1.15;0.10;;;26.20;39.40;;;;;;5083557;28;20044;-60
2022/07/06 06:45:28;;;;;;;3.90;0.30;;;26.20;39.40;;;;;;5064957;28;20117;-60
2022/07/06 06:47:55;;;;;;;1.65;0.20;;;26.20;39.40;;;;;;5082904;28;20044;-60
2022/07/06 06:50:22;;;;;;;2.63;0.45;;;26.20;39.30;;;;;;5078906;28;20044;-60
2022/07/06 06:52:49;;;;;;;0.60;0.10;;;26.20;39.20;;;;;;5082250;28;20129;-59
2022/07/06 06:55:17;;;;;;;2.55;0.20;;;26.20;39.10;;;;;;5083380;28;20036;-59
2022/07/06 06:57:44;;;;;;;4.35;0.20;;;26.20;39.20;;;;;;5083035;28;20048;-58
2022/07/06 07:00:13;;;;;;;4.88;0.25;;;26.20;39.40;;;;;;5078877;28;20070;-60
2022/07/06 07:02:42;;;;;;;3.63;0.80;;;26.20;39.50;;;;;;5080267;28;20032;-59
2022/07/06 07:05:09;;;;;;;3.30;0.30;;;26.30;39.50;;;;;;5079821;28;20048;-59
2022/07/06 07:07:36;;;;;;;0.57;0.20;;;26.20;39.40;;;;;;5081930;28;20086;-59
2022/07/06 07:10:04;;;;;;;2.25;0.20;;;26.30;39.40;;;;;;5090025;28;20112;-59
2022/07/06 07:12:32;;;;;;;3.30;0.55;;;26.30;39.30;;;;;;5079614;28;20063;-59
2022/07/06 07:14:59;;;;;;;1.75;0.20;;;26.30;39.30;;;;;;5076950;28;20511;-59
2022/07/06 07:17:26;;;;;;;1.55;0.20;;;26.30;39.20;;;;;;5071735;28;20036;-59
2022/07/06 07:19:56;;;;;;;3.03;0.10;;;26.30;39.10;;;;;;5080140;28;20464;-59
2022/07/06 07:22:24;;;;;;;5.93;0.25;;;26.40;39.10;;;;;;5078871;28;20047;-59
2022/07/06 07:24:51;;;;;;;1.27;0.20;;;26.40;39.00;;;;;;5075988;28;20044;-59
2022/07/06 07:27:18;;;;;;;2.45;1.13;;;26.40;39.00;;;;;;5060720;28;20527;-61
2022/07/06 07:29:45;;;;;;;0.85;0.20;;;26.50;39.10;;;;;;5076526;28;20089;-58
2022/07/06 07:32:12;;;;;;;2.80;0.30;;;26.40;39.00;;;;;;5075786;28;20067;-60
2022/07/06 07:34:39;;;;;;;1.05;1.00;;;26.50;39.10;;;;;;5071890;28;20056;-60
2022/07/06 07:37:08;;;;;;;3.22;0.70;;;26.50;39.00;;;;;;5082606;28;20105;-60
2022/07/06 07:39:35;;;;;;;1.15;0.60;;;26.50;38.90;;;;;;5082722;28;20097;-61
2022/07/06 07:42:02;;;;;;;2.78;1.13;;;26.50;38.80;;;;;;5080068;28;20354;-60
2022/07/06 07:44:29;;;;;;;3.55;0.30;;;26.60;38.80;;;;;;5074981;28;20036;-60
2022/07/06 07:46:56;;;;;;;2.47;0.80;;;26.60;38.70;;;;;;5080431;28;20032;-60
2022/07/06 07:49:23;;;;;;;1.67;0.60;;;26.60;38.70;;;;;;5079200;28;20043;-60
2022/07/06 07:51:51;;;;;;;4.35;0.70;;;26.60;38.60;;;;;;5076351;28;20048;-60
2022/07/06 07:54:19;;;;;;;1.88;0.55;;;26.60;38.50;;;;;;5081530;28;20075;-61
2022/07/06 07:56:46;;;;;;;0.77;0.20;;;26.60;38.40;;;;;;5078541;28;20571;-60
2022/07/06 07:59:13;;;;;;;2.13;0.40;;;26.60;38.40;;;;;;5076406;28;20074;-60
2022/07/06 08:01:42;;;;;;;2.67;0.32;;;26.70;38.30;;;;;;5055848;28;20817;-60
2022/07/06 08:04:09;;;;;;;1.33;0.20;;;26.70;38.20;;;;;;5083126;28;20078;-60
2022/07/06 08:06:36;;;;;;;1.85;0.30;;;26.70;38.10;;;;;;5084640;28;20128;-58
2022/07/06 08:09:04;;;;;;;1.85;0.43;;;26.70;38.00;;;;;;5060594;28;20059;-60
2022/07/06 08:11:33;;;;;;;2.72;0.73;;;26.70;38.00;;;;;;5079268;28;20040;-66
2022/07/06 08:14:00;;;;;;;4.82;0.20;;;26.80;38.10;;;;;;5058658;28;20489;-68
2022/07/06 08:16:27;;;;;;;0.65;0.20;;;26.70;38.20;;;;;;5081992;28;20519;-69
2022/07/06 08:18:55;;;;;;;5.20;0.20;;;26.70;38.20;;;;;;5076700;28;20126;-68
2022/07/06 08:21:22;;;;;;;3.08;0.15;;;26.80;38.30;;;;;;5076857;28;20074;-66
2022/07/06 08:23:49;;;;;;;2.65;0.30;;;26.70;38.30;;;;;;5057969;28;20048;-66
2022/07/06 08:26:17;;;;;;;0.93;0.13;;;26.70;38.30;;;;;;5084680;28;20040;-72
2022/07/06 08:28:45;;;;;;;0.85;0.22;;;26.70;38.30;;;;;;5077668;28;20051;-69
2022/07/06 08:31:13;;;;;;;2.55;0.75;;;26.70;38.30;;;;;;5079467;28;20134;-73
2022/07/06 08:33:40;;;;;;;1.95;0.10;;;26.70;38.40;;;;;;5076944;28;20040;-62
2022/07/06 08:36:07;;;;;;;1.05;0.15;;;26.70;38.20;;;;;;5080304;28;20131;-61
2022/07/06 08:38:34;;;;;;;3.85;0.95;;;26.70;38.20;;;;;;5080932;28;20117;-61
2022/07/06 08:41:02;;;;;;;3.15;0.20;;;26.80;38.30;;;;;;5073404;28;20036;-59
2022/07/06 08:43:29;;;;;;;1.15;0.20;;;26.70;38.20;;;;;;5071803;28;20051;-60
2022/07/06 08:45:58;;;;;;;0.70;0.40;;;26.70;38.20;;;;;;5076117;28;20607;-66
2022/07/06 08:48:26;;;;;;;1.23;0.32;;;26.80;38.30;;;;;;5081218;28;20043;-64
2022/07/06 08:50:54;;;;;;;2.17;0.20;;;26.80;38.40;;;;;;5074166;28;20040;-69
2022/07/06 08:53:21;;;;;;;1.63;0.10;;;26.80;38.30;;;;;;5086853;28;20036;-67
2022/07/06 08:55:49;;;;;;;0.10;0.10;;;26.80;38.20;;;;;;5079486;28;20029;-61
2022/07/06 08:58:17;;;;;;;1.05;0.13;;;26.90;38.20;;;;;;5084384;28;20044;-62
2022/07/06 09:00:44;;;;;;;1.92;0.20;;;27.00;38.10;;;;;;5081978;28;20059;-62
2022/07/06 09:03:14;;;;;;;1.25;0.50;;;27.00;37.80;;;;;;5082177;28;20469;-61
2022/07/06 09:05:46;;;;;;;2.20;0.43;;;27.20;37.70;;;;;;5068498;28;20131;-70
2022/07/06 09:08:14;;;;;;;0.82;0.15;;;27.20;37.60;;;;;;5065864;28;20480;-67
2022/07/06 09:10:41;;;;;;;1.77;0.10;;;27.30;37.50;;;;;;5080276;28;20058;-67
2022/07/06 09:13:09;;;;;;;0.40;0.40;;;27.40;37.30;;;;;;5084023;28;20037;-66
2022/07/06 09:15:39;;;;;;;0.77;0.10;;;27.50;37.00;;;;;;5085965;28;20116;-67
2022/07/06 09:18:06;;;;;;;0.55;0.10;;;27.60;36.80;;;;;;5077035;28;20203;-63
2022/07/06 09:20:35;;;;;;;0.10;0.10;;;27.60;36.70;;;;;;5076715;28;20071;-52
2022/07/06 09:23:04;;;;;;;0.32;0.10;;;27.80;36.70;;;;;;5084943;28;20085;-49
2022/07/06 09:25:31;;;;;;;1.85;0.10;;;27.80;36.60;;;;;;5078854;28;20560;-53
2022/07/06 09:28:00;;;;;;;1.55;0.20;;;27.90;36.50;;;;;;5074928;28;20126;-70
2022/07/06 09:30:30;;;;;;;3.63;0.10;;;28.00;36.20;;;;;;5060866;28;20056;-67
2022/07/06 09:32:59;;;;;;;1.70;0.10;;;28.10;36.00;;;;;;5077304;28;20705;-67
2022/07/06 09:35:28;;;;;;;0.65;0.10;;;28.10;35.80;;;;;;5073484;28;20086;-64
2022/07/06 09:38:05;;;;;;;3.65;0.10;;;28.30;35.80;;;;;;5080430;28;20512;-67
2022/07/06 09:40:38;;;;;;;0.15;0.10;;;28.30;35.80;;;;;;5073836;28;20123;-72
2022/07/06 09:43:09;;;;;;;0.20;0.10;;;28.30;35.70;;;;;;5078940;28;20496;-72
2022/07/06 09:45:38;;;;;;;0.30;0.20;;;28.40;35.60;;;;;;5075105;28;20049;-69
2022/07/06 09:48:10;;;;;;;0.50;0.10;;;28.40;35.60;;;;;;5081973;28;20130;-64
2022/07/06 09:50:45;;;;;;;2.42;0.10;;;28.40;35.30;;;;;;5080525;28;20075;-67
2022/07/06 09:53:14;;;;;;;1.13;0.10;;;28.50;35.30;;;;;;5072438;28;20036;-67
2022/07/06 09:55:45;;;;;;;4.60;0.13;;;28.50;35.20;;;;;;5083262;28;20044;-65
2022/07/06 09:58:12;;;;;;;1.05;0.10;;;28.50;35.00;;;;;;5081385;28;20037;-70
2022/07/06 10:00:39;;;;;;;1.65;0.30;;;28.50;35.20;;;;;;5077727;28;20047;-65
2022/07/06 10:03:07;;;;;;;1.08;0.38;;;28.60;35.30;;;;;;5079194;28;20087;-66
2022/07/06 10:05:38;;;;;;;2.08;0.10;;;28.60;35.90;;;;;;5092697;28;20049;-75
2022/07/06 10:08:08;;;;;;;2.40;0.20;;;28.60;35.20;;;;;;5086682;28;20037;-73
2022/07/06 10:10:39;;;;;;;0.70;0.10;;;28.70;35.20;;;;;;5075531;28;20048;-67
2022/07/06 10:13:07;;;;;;;0.10;0.10;;;28.70;35.20;;;;;;5089213;28;20040;-66
2022/07/06 10:15:36;;;;;;;3.70;0.10;;;28.80;35.10;;;;;;5083863;28;20032;-69
2022/07/06 10:18:05;;;;;;;0.45;0.10;;;28.80;35.00;;;;;;5062151;28;20048;-68
2022/07/06 10:20:36;;;;;;;0.28;0.10;;;28.80;34.90;;;;;;5080126;28;20504;-68
2022/07/06 10:23:05;;;;;;;1.45;0.10;;;28.90;34.60;;;;;;5076904;28;20060;-65
2022/07/06 10:25:34;;;;;;;0.63;0.20;;;28.90;34.10;;;;;;5064839;28;20052;-57
2022/07/06 10:28:03;;;;;;;2.13;0.90;;;28.90;34.20;;;;;;5079262;28;20115;-62
2022/07/06 10:30:32;;;;;;;2.22;0.40;;;29.00;34.50;;;;;;5078686;28;20090;-61
2022/07/06 10:33:01;;;;;;;1.15;0.28;;;29.00;34.60;;;;;;5073767;28;20041;-70
2022/07/06 10:35:28;;;;;;;0.10;0.10;;;29.00;34.50;;;;;;5076969;28;20074;-59
2022/07/06 10:38:06;;;;;;;5.82;0.30;;;29.00;34.50;;;;;;5075849;28;20064;-62
2022/07/06 10:43:20;;;;;;;2.38;0.22;;;29.10;34.70;;;;;;5091180;28;20404;-64
2022/07/06 10:45:53;;;;;;;2.47;0.20;;;29.10;34.80;;;;;;5071100;28;20093;-56
2022/07/06 10:48:22;;;;;;;4.57;0.30;;;29.10;34.70;;;;;;5078150;28;20043;-63
2022/07/06 10:50:51;;;;;;;0.88;0.20;;;29.30;34.90;;;;;;5085714;28;20423;-65
2022/07/06 10:53:23;;;;;;;0.20;0.20;;;29.30;34.80;;;;;;5086396;28;20067;-66
2022/07/06 10:55:51;;;;;;;0.10;0.10;;;29.50;34.80;;;;;;5082305;28;20032;-66
2022/07/06 10:58:37;;;;;;;0.10;0.10;;;29.70;34.70;;;;;;5085032;28;20046;-64
2022/07/06 11:01:06;;;;;;;0.73;0.10;;;29.90;34.30;;;;;;5057754;28;20512;-63
2022/07/06 11:03:37;;;;;;;0.28;0.28;;;30.10;34.10;;;;;;5066660;28;20036;-65
2022/07/06 11:06:08;;;;;;;0.20;0.10;;;30.30;33.80;;;;;;5080622;28;20052;-64
2022/07/06 11:08:50;;;;;;;0.20;0.20;;;30.50;33.80;;;;;;5085517;28;20040;-64
2022/07/06 11:11:19;;;;;;;2.03;0.20;;;30.80;33.70;;;;;;5067896;28;20039;-64
2022/07/06 11:13:55;;;;;;;0.45;0.10;;;30.90;33.20;;;;;;5085052;28;20051;-64
2022/07/06 11:16:25;;;;;;;0.45;0.15;;;31.10;33.00;;;;;;5084832;28;20051;-67
2022/07/06 11:19:10;;;;;;;0.85;0.10;;;31.20;32.80;;;;;;5083681;28;20044;-60
2022/07/06 11:21:45;;;;;;;0.65;0.52;;;31.50;32.80;;;;;;5085520;28;20052;-60
2022/07/06 11:24:14;;;;;;;0.43;0.17;;;31.60;32.50;;;;;;5066843;28;20055;-62
2022/07/06 11:26:43;;;;;;;1.85;0.20;;;31.80;32.30;;;;;;5081627;28;20142;-61
2022/07/06 11:29:12;;;;;;;0.90;0.22;;;31.90;32.10;;;;;;5060030;28;20046;-56
2022/07/06 11:31:41;;;;;;;1.38;0.20;;;32.10;31.90;;;;;;5079490;28;20155;-64
2022/07/06 11:34:09;;;;;;;0.50;0.13;;;32.30;31.80;;;;;;5084518;28;20797;-64
2022/07/06 11:36:38;;;;;;;0.20;0.10;;;32.50;31.50;;;;;;5081751;28;20398;-65
2022/07/06 11:39:06;;;;;;;1.45;0.10;;;32.70;31.40;;;;;;5083543;28;20047;-65
2022/07/06 11:41:33;;;;;;;0.10;0.10;;;32.90;31.00;;;;;;5083058;28;20470;-64
2022/07/06 11:44:01;;;;;;;0.32;0.20;;;33.00;30.90;;;;;;5045673;28;20997;-66
2022/07/06 11:46:33;;;;;;;0.22;0.10;;;33.20;30.80;;;;;;5082817;28;20048;-65
2022/07/06 11:49:02;;;;;;;0.90;0.28;;;33.40;30.70;;;;;;5085149;28;20032;-71
2022/07/06 11:51:33;;;;;;;0.30;0.20;;;33.60;30.50;;;;;;5086565;28;20075;-71
2022/07/06 11:54:02;;;;;;;1.08;0.30;;;33.80;30.40;;;;;;5057217;28;20036;-69
2022/07/06 11:56:31;;;;;;;0.10;0.10;;;33.90;30.30;;;;;;5082305;28;20413;-68
2022/07/06 11:59:00;;;;;;;3.50;0.20;;;34.00;30.20;;;;;;5082781;28;20044;-61
2022/07/06 12:01:30;;;;;;;0.20;0.10;;;34.10;30.20;;;;;;5077674;28;20485;-60
2022/07/06 12:03:59;;;;;;;0.30;0.20;;;34.20;29.90;;;;;;5081938;28;20047;-54
2022/07/06 12:06:28;;;;;;;0.30;0.30;;;34.40;29.90;;;;;;5077043;28;20044;-56
2022/07/06 12:08:57;;;;;;;1.38;0.20;;;34.40;29.80;;;;;;5061055;28;20466;-59
2022/07/06 12:11:27;;;;;;;0.65;0.38;;;34.40;29.60;;;;;;5066376;28;20044;-61
2022/07/06 12:13:55;;;;;;;0.40;0.30;;;34.30;29.40;;;;;;5084314;28;20458;-61
2022/07/06 12:16:29;;;;;;;0.63;0.20;;;34.20;29.50;;;;;;5088289;28;20069;-62
2022/07/06 12:18:58;;;;;;;2.10;0.73;;;34.00;29.40;;;;;;5084268;28;20048;-60
2022/07/06 12:21:26;;;;;;;0.65;0.20;;;33.90;29.60;;;;;;5083443;28;20089;-58
2022/07/06 12:23:55;;;;;;;0.50;0.25;;;33.80;29.70;;;;;;5084862;28;20427;-62
2022/07/06 12:26:25;;;;;;;0.20;0.10;;;33.70;29.90;;;;;;5082115;28;20036;-59
2022/07/06 12:29:05;;;;;;;4.03;0.77;;;33.60;29.90;;;;;;5083700;28;20036;-59
2022/07/06 12:31:34;;;;;;;0.20;0.20;;;33.40;29.90;;;;;;5086480;28;20478;-50
2022/07/06 12:34:03;;;;;;;1.95;0.20;;;33.30;30.00;;;;;;5086681;28;20067;-65
2022/07/06 12:36:31;;;;;;;1.25;0.20;;;33.20;30.20;;;;;;5081300;28;20067;-64
2022/07/06 12:38:59;;;;;;;0.70;0.40;;;33.10;30.40;;;;;;5083158;28;20444;-61
2022/07/06 12:41:33;;;;;;;0.80;0.40;;;33.00;30.50;;;;;;5079716;28;20046;-61
2022/07/06 12:44:08;;;;;;;2.75;0.35;;;33.00;30.60;;;;;;5088071;28;20112;-63
2022/07/06 12:46:37;;;;;;;1.38;0.20;;;32.90;30.60;;;;;;5091603;28;20067;-64
2022/07/06 12:49:14;;;;;;;1.10;0.30;;;32.80;30.50;;;;;;5085511;28;20050;-60
2022/07/06 12:52:00;;;;;;;1.25;0.38;;;32.80;30.60;;;;;;5082578;28;20055;-58
2022/07/06 12:54:30;;;;;;;3.72;0.40;;;32.80;30.70;;;;;;5082166;28;20047;-58
2022/07/06 12:57:01;;;;;;;0.20;0.20;;;32.70;30.60;;;;;;5080701;28;20044;-59
2022/07/06 12:59:29;;;;;;;0.98;0.10;;;32.60;30.60;;;;;;5081735;28;20885;-59
2022/07/06 13:01:57;;;;;;;0.63;0.22;;;32.60;30.80;;;;;;5088893;28;20055;-61
2022/07/06 13:04:26;;;;;;;0.43;0.15;;;32.60;30.90;;;;;;5092572;28;20048;-59